CPS2 weather

Elmhirst's Resort Airport
Keene, Ontario, Canada

Public forecast

Using degrees Celsius for public forecast. Weather courtesy of forecast.io.

Closest aviation weather report (METAR) to Elmhirst's Resort Airport

Closest report is Peterborough Airport, 11.1 nm (20.5 km) W. Retrieved 2019/12/11 22:24 UTC (0 seconds ago):

CYPQ 112224Z AUTO 27015G23KT 9SM FEW024 M07/M11 A3025 RMK SLP257

Closest aviation forecast (TAF) to Elmhirst's Resort Airport

Closest forecast is Peterborough Airport, 11.1 nm (20.5 km) W. Retrieved 2019/12/11 20:00 UTC (2 hours ago):

TAF CYPQ 111938Z 1120/1203 26015G25KT P6SM BKN050 TEMPO 1120/1123 11/2SM -SHSN FM112300 27015G25KT P6SM BKN040 TEMPO 1123/1124 3SM -SHSN BECMG 1200/1202 26013KT RMK FCST BASED ON AUTO OBS NXT FCST WILL BE ISSUED AT 121045Z